sensor_id;sensor_type;location;lat;lon;timestamp;P1;durP1;ratioP1;P2;durP2;ratioP2
81912;SDS011;71377;50.698;7.164;2023-08-30T00:00:46;5.30;;;4.60;;
81912;SDS011;71377;50.698;7.164;2023-08-30T00:03:13;5.00;;;4.50;;
81912;SDS011;71377;50.698;7.164;2023-08-30T00:05:40;6.47;;;4.63;;
81912;SDS011;71377;50.698;7.164;2023-08-30T00:08:07;5.18;;;4.63;;
81912;SDS011;71377;50.698;7.164;2023-08-30T00:10:35;7.75;;;5.15;;
81912;SDS011;71377;50.698;7.164;2023-08-30T00:13:01;6.15;;;4.82;;
81912;SDS011;71377;50.698;7.164;2023-08-30T00:15:27;14.07;;;4.82;;
81912;SDS011;71377;50.698;7.164;2023-08-30T00:17:54;10.05;;;4.95;;
81912;SDS011;71377;50.698;7.164;2023-08-30T00:20:20;7.10;;;5.05;;
81912;SDS011;71377;50.698;7.164;2023-08-30T00:22:47;6.57;;;4.93;;
81912;SDS011;71377;50.698;7.164;2023-08-30T00:25:16;7.78;;;5.20;;
81912;SDS011;71377;50.698;7.164;2023-08-30T00:27:43;6.45;;;5.07;;
81912;SDS011;71377;50.698;7.164;2023-08-30T00:30:10;6.97;;;5.00;;
81912;SDS011;71377;50.698;7.164;2023-08-30T00:32:37;6.88;;;5.05;;
81912;SDS011;71377;50.698;7.164;2023-08-30T00:35:03;5.57;;;5.07;;
81912;SDS011;71377;50.698;7.164;2023-08-30T00:37:30;8.60;;;5.40;;
81912;SDS011;71377;50.698;7.164;2023-08-30T00:39:57;6.82;;;5.18;;
81912;SDS011;71377;50.698;7.164;2023-08-30T00:42:25;7.40;;;5.45;;
81912;SDS011;71377;50.698;7.164;2023-08-30T00:44:53;6.18;;;4.93;;
81912;SDS011;71377;50.698;7.164;2023-08-30T00:47:20;7.78;;;5.28;;
81912;SDS011;71377;50.698;7.164;2023-08-30T00:49:47;6.43;;;5.60;;
81912;SDS011;71377;50.698;7.164;2023-08-30T00:52:14;7.10;;;5.43;;
81912;SDS011;71377;50.698;7.164;2023-08-30T00:54:41;6.72;;;5.18;;
81912;SDS011;71377;50.698;7.164;2023-08-30T00:57:08;5.90;;;5.30;;
81912;SDS011;71377;50.698;7.164;2023-08-30T00:59:35;5.63;;;5.07;;
81912;SDS011;71377;50.698;7.164;2023-08-30T01:02:03;5.90;;;4.93;;
81912;SDS011;71377;50.698;7.164;2023-08-30T01:04:30;6.20;;;5.05;;
81912;SDS011;71377;50.698;7.164;2023-08-30T01:06:57;6.18;;;5.50;;
81912;SDS011;71377;50.698;7.164;2023-08-30T01:09:24;9.35;;;5.90;;
81912;SDS011;71377;50.698;7.164;2023-08-30T01:14:35;8.77;;;5.30;;
81912;SDS011;71377;50.698;7.164;2023-08-30T01:17:08;9.55;;;6.10;;
81912;SDS011;71377;50.698;7.164;2023-08-30T01:19:58;7.03;;;5.70;;
81912;SDS011;71377;50.698;7.164;2023-08-30T01:25:10;7.72;;;4.75;;
81912;SDS011;71377;50.698;7.164;2023-08-30T01:27:47;8.27;;;4.75;;
81912;SDS011;71377;50.698;7.164;2023-08-30T01:30:15;5.97;;;5.07;;
81912;SDS011;71377;50.698;7.164;2023-08-30T01:32:43;5.13;;;4.63;;
81912;SDS011;71377;50.698;7.164;2023-08-30T01:35:10;10.63;;;4.28;;
81912;SDS011;71377;50.698;7.164;2023-08-30T01:37:46;7.80;;;4.32;;
81912;SDS011;71377;50.698;7.164;2023-08-30T01:40:13;6.72;;;4.60;;
81912;SDS011;71377;50.698;7.164;2023-08-30T01:42:42;6.18;;;4.05;;
81912;SDS011;71377;50.698;7.164;2023-08-30T01:45:10;4.72;;;4.22;;
81912;SDS011;71377;50.698;7.164;2023-08-30T01:47:40;7.25;;;4.50;;
81912;SDS011;71377;50.698;7.164;2023-08-30T01:50:09;6.13;;;4.00;;
81912;SDS011;71377;50.698;7.164;2023-08-30T01:52:37;4.97;;;4.00;;
81912;SDS011;71377;50.698;7.164;2023-08-30T01:55:06;7.10;;;3.80;;
81912;SDS011;71377;50.698;7.164;2023-08-30T01:57:34;5.35;;;4.78;;
81912;SDS011;71377;50.698;7.164;2023-08-30T02:00:01;9.48;;;5.38;;
81912;SDS011;71377;50.698;7.164;2023-08-30T02:02:28;6.00;;;5.40;;
81912;SDS011;71377;50.698;7.164;2023-08-30T02:04:56;7.05;;;5.53;;
81912;SDS011;71377;50.698;7.164;2023-08-30T02:07:30;7.90;;;5.55;;
81912;SDS011;71377;50.698;7.164;2023-08-30T02:10:00;8.23;;;5.45;;
81912;SDS011;71377;50.698;7.164;2023-08-30T02:12:35;5.85;;;4.80;;
81912;SDS011;71377;50.698;7.164;2023-08-30T02:15:08;8.20;;;5.10;;
81912;SDS011;71377;50.698;7.164;2023-08-30T02:17:36;6.13;;;5.20;;
81912;SDS011;71377;50.698;7.164;2023-08-30T02:20:05;6.15;;;4.90;;
81912;SDS011;71377;50.698;7.164;2023-08-30T02:22:33;6.78;;;4.88;;
81912;SDS011;71377;50.698;7.164;2023-08-30T02:24:59;5.30;;;4.75;;
81912;SDS011;71377;50.698;7.164;2023-08-30T02:27:31;6.68;;;4.80;;
81912;SDS011;71377;50.698;7.164;2023-08-30T02:29:58;6.20;;;4.82;;
81912;SDS011;71377;50.698;7.164;2023-08-30T02:32:24;7.65;;;5.18;;
81912;SDS011;71377;50.698;7.164;2023-08-30T02:34:51;5.55;;;5.05;;
81912;SDS011;71377;50.698;7.164;2023-08-30T02:37:18;10.02;;;5.60;;
81912;SDS011;71377;50.698;7.164;2023-08-30T02:39:45;8.18;;;5.05;;
81912;SDS011;71377;50.698;7.164;2023-08-30T02:42:12;8.38;;;5.22;;
81912;SDS011;71377;50.698;7.164;2023-08-30T02:44:38;5.72;;;4.93;;
81912;SDS011;71377;50.698;7.164;2023-08-30T02:47:04;6.25;;;4.95;;
81912;SDS011;71377;50.698;7.164;2023-08-30T02:49:31;5.45;;;4.95;;
81912;SDS011;71377;50.698;7.164;2023-08-30T02:51:58;6.82;;;5.25;;
81912;SDS011;71377;50.698;7.164;2023-08-30T02:54:24;9.05;;;5.43;;
81912;SDS011;71377;50.698;7.164;2023-08-30T02:56:50;5.38;;;4.75;;
81912;SDS011;71377;50.698;7.164;2023-08-30T02:59:17;5.53;;;5.00;;
81912;SDS011;71377;50.698;7.164;2023-08-30T03:01:43;6.80;;;4.85;;
81912;SDS011;71377;50.698;7.164;2023-08-30T03:04:10;6.35;;;5.22;;
81912;SDS011;71377;50.698;7.164;2023-08-30T03:06:36;7.47;;;5.50;;
81912;SDS011;71377;50.698;7.164;2023-08-30T03:09:02;6.78;;;4.88;;
81912;SDS011;71377;50.698;7.164;2023-08-30T03:11:29;6.85;;;5.25;;
81912;SDS011;71377;50.698;7.164;2023-08-30T03:13:55;5.70;;;5.00;;
81912;SDS011;71377;50.698;7.164;2023-08-30T03:16:22;6.28;;;5.18;;
81912;SDS011;71377;50.698;7.164;2023-08-30T03:18:49;9.02;;;5.65;;
81912;SDS011;71377;50.698;7.164;2023-08-30T03:21:16;7.68;;;5.75;;
81912;SDS011;71377;50.698;7.164;2023-08-30T03:23:42;8.18;;;6.30;;
81912;SDS011;71377;50.698;7.164;2023-08-30T03:26:09;6.80;;;5.25;;
81912;SDS011;71377;50.698;7.164;2023-08-30T03:28:45;7.45;;;5.53;;
81912;SDS011;71377;50.698;7.164;2023-08-30T03:31:15;8.15;;;5.40;;
81912;SDS011;71377;50.698;7.164;2023-08-30T03:33:43;7.85;;;5.43;;
81912;SDS011;71377;50.698;7.164;2023-08-30T03:36:11;6.25;;;5.20;;
81912;SDS011;71377;50.698;7.164;2023-08-30T03:38:40;6.63;;;5.78;;
81912;SDS011;71377;50.698;7.164;2023-08-30T03:41:07;9.10;;;6.40;;
81912;SDS011;71377;50.698;7.164;2023-08-30T03:43:34;8.90;;;6.10;;
81912;SDS011;71377;50.698;7.164;2023-08-30T03:46:01;8.00;;;6.35;;
81912;SDS011;71377;50.698;7.164;2023-08-30T03:48:29;10.70;;;6.88;;
81912;SDS011;71377;50.698;7.164;2023-08-30T03:50:56;9.95;;;6.63;;
81912;SDS011;71377;50.698;7.164;2023-08-30T03:53:23;9.63;;;6.70;;
81912;SDS011;71377;50.698;7.164;2023-08-30T03:55:50;10.43;;;6.47;;
81912;SDS011;71377;50.698;7.164;2023-08-30T03:58:18;7.18;;;6.47;;
81912;SDS011;71377;50.698;7.164;2023-08-30T04:00:45;9.25;;;6.10;;
81912;SDS011;71377;50.698;7.164;2023-08-30T04:03:12;7.45;;;5.82;;
81912;SDS011;71377;50.698;7.164;2023-08-30T04:05:40;6.38;;;5.78;;
81912;SDS011;71377;50.698;7.164;2023-08-30T04:08:07;9.73;;;6.95;;
81912;SDS011;71377;50.698;7.164;2023-08-30T04:10:37;9.02;;;6.82;;
81912;SDS011;71377;50.698;7.164;2023-08-30T04:13:05;10.80;;;7.20;;
81912;SDS011;71377;50.698;7.164;2023-08-30T04:15:34;8.50;;;6.90;;
81912;SDS011;71377;50.698;7.164;2023-08-30T04:18:02;8.32;;;6.90;;
81912;SDS011;71377;50.698;7.164;2023-08-30T04:20:29;7.05;;;6.28;;
81912;SDS011;71377;50.698;7.164;2023-08-30T04:22:56;8.05;;;7.25;;
81912;SDS011;71377;50.698;7.164;2023-08-30T04:25:23;10.18;;;7.55;;
81912;SDS011;71377;50.698;7.164;2023-08-30T04:27:51;8.20;;;6.95;;
81912;SDS011;71377;50.698;7.164;2023-08-30T04:30:18;8.40;;;7.50;;
81912;SDS011;71377;50.698;7.164;2023-08-30T04:32:44;9.32;;;8.25;;
81912;SDS011;71377;50.698;7.164;2023-08-30T04:35:10;8.85;;;7.93;;
81912;SDS011;71377;50.698;7.164;2023-08-30T04:37:37;9.85;;;7.57;;
81912;SDS011;71377;50.698;7.164;2023-08-30T04:40:09;9.63;;;7.88;;
81912;SDS011;71377;50.698;7.164;2023-08-30T04:42:36;9.07;;;8.18;;
81912;SDS011;71377;50.698;7.164;2023-08-30T04:45:03;13.15;;;8.07;;
81912;SDS011;71377;50.698;7.164;2023-08-30T04:47:31;9.20;;;8.27;;
81912;SDS011;71377;50.698;7.164;2023-08-30T04:49:58;11.07;;;8.75;;
81912;SDS011;71377;50.698;7.164;2023-08-30T04:52:25;9.35;;;7.88;;
81912;SDS011;71377;50.698;7.164;2023-08-30T04:54:52;10.75;;;8.98;;
81912;SDS011;71377;50.698;7.164;2023-08-30T04:57:18;12.88;;;9.32;;
81912;SDS011;71377;50.698;7.164;2023-08-30T04:59:45;12.52;;;8.82;;
81912;SDS011;71377;50.698;7.164;2023-08-30T05:02:11;11.25;;;8.40;;
81912;SDS011;71377;50.698;7.164;2023-08-30T05:04:38;9.65;;;8.35;;
81912;SDS011;71377;50.698;7.164;2023-08-30T05:07:05;9.55;;;8.57;;
81912;SDS011;71377;50.698;7.164;2023-08-30T05:09:31;11.43;;;8.30;;
81912;SDS011;71377;50.698;7.164;2023-08-30T05:11:58;12.35;;;8.68;;
81912;SDS011;71377;50.698;7.164;2023-08-30T05:14:25;9.73;;;8.65;;
81912;SDS011;71377;50.698;7.164;2023-08-30T05:16:51;13.38;;;8.95;;
81912;SDS011;71377;50.698;7.164;2023-08-30T05:19:20;10.93;;;8.88;;
81912;SDS011;71377;50.698;7.164;2023-08-30T05:21:47;11.70;;;8.23;;
81912;SDS011;71377;50.698;7.164;2023-08-30T05:24:17;12.98;;;9.40;;
81912;SDS011;71377;50.698;7.164;2023-08-30T05:26:43;14.35;;;9.73;;
81912;SDS011;71377;50.698;7.164;2023-08-30T05:29:13;12.23;;;10.20;;
81912;SDS011;71377;50.698;7.164;2023-08-30T05:31:41;10.65;;;9.55;;
81912;SDS011;71377;50.698;7.164;2023-08-30T05:34:08;12.32;;;9.90;;
81912;SDS011;71377;50.698;7.164;2023-08-30T05:36:34;14.57;;;10.60;;
81912;SDS011;71377;50.698;7.164;2023-08-30T05:39:00;12.07;;;10.35;;
81912;SDS011;71377;50.698;7.164;2023-08-30T05:41:27;11.55;;;10.20;;
81912;SDS011;71377;50.698;7.164;2023-08-30T05:43:53;11.07;;;9.93;;
81912;SDS011;71377;50.698;7.164;2023-08-30T05:46:20;10.32;;;9.32;;
81912;SDS011;71377;50.698;7.164;2023-08-30T05:48:46;11.93;;;9.38;;
81912;SDS011;71377;50.698;7.164;2023-08-30T05:51:13;13.32;;;9.90;;
81912;SDS011;71377;50.698;7.164;2023-08-30T05:53:39;12.80;;;9.07;;
81912;SDS011;71377;50.698;7.164;2023-08-30T05:56:06;12.10;;;9.20;;
81912;SDS011;71377;50.698;7.164;2023-08-30T05:58:32;12.00;;;9.52;;
81912;SDS011;71377;50.698;7.164;2023-08-30T06:00:58;11.63;;;9.20;;
81912;SDS011;71377;50.698;7.164;2023-08-30T06:03:31;10.93;;;9.07;;
81912;SDS011;71377;50.698;7.164;2023-08-30T06:05:57;11.30;;;9.25;;
81912;SDS011;71377;50.698;7.164;2023-08-30T06:08:24;12.02;;;8.93;;
81912;SDS011;71377;50.698;7.164;2023-08-30T06:10:51;14.77;;;9.48;;
81912;SDS011;71377;50.698;7.164;2023-08-30T06:13:17;12.45;;;9.27;;
81912;SDS011;71377;50.698;7.164;2023-08-30T06:15:44;12.20;;;9.98;;
81912;SDS011;71377;50.698;7.164;2023-08-30T06:18:11;11.40;;;9.57;;
81912;SDS011;71377;50.698;7.164;2023-08-30T06:20:41;15.68;;;9.90;;
81912;SDS011;71377;50.698;7.164;2023-08-30T06:23:08;11.93;;;9.40;;
81912;SDS011;71377;50.698;7.164;2023-08-30T06:25:34;14.73;;;9.88;;
81912;SDS011;71377;50.698;7.164;2023-08-30T06:28:01;12.93;;;9.65;;
81912;SDS011;71377;50.698;7.164;2023-08-30T06:30:29;13.15;;;10.32;;
81912;SDS011;71377;50.698;7.164;2023-08-30T06:32:56;15.30;;;10.80;;
81912;SDS011;71377;50.698;7.164;2023-08-30T06:35:24;15.68;;;10.68;;
81912;SDS011;71377;50.698;7.164;2023-08-30T06:37:50;13.50;;;10.85;;
81912;SDS011;71377;50.698;7.164;2023-08-30T06:40:17;12.73;;;10.20;;
81912;SDS011;71377;50.698;7.164;2023-08-30T06:42:44;11.80;;;10.40;;
81912;SDS011;71377;50.698;7.164;2023-08-30T06:45:11;13.27;;;10.38;;
81912;SDS011;71377;50.698;7.164;2023-08-30T06:47:37;12.15;;;9.75;;
81912;SDS011;71377;50.698;7.164;2023-08-30T06:50:05;11.05;;;9.23;;
81912;SDS011;71377;50.698;7.164;2023-08-30T06:52:32;14.40;;;9.20;;
81912;SDS011;71377;50.698;7.164;2023-08-30T06:54:59;10.30;;;9.15;;
81912;SDS011;71377;50.698;7.164;2023-08-30T06:57:25;12.68;;;9.00;;
81912;SDS011;71377;50.698;7.164;2023-08-30T06:59:52;12.63;;;9.15;;
81912;SDS011;71377;50.698;7.164;2023-08-30T07:02:18;10.48;;;9.02;;
81912;SDS011;71377;50.698;7.164;2023-08-30T07:04:45;12.30;;;8.65;;
81912;SDS011;71377;50.698;7.164;2023-08-30T07:07:14;10.48;;;8.93;;
81912;SDS011;71377;50.698;7.164;2023-08-30T07:09:40;10.07;;;8.70;;
81912;SDS011;71377;50.698;7.164;2023-08-30T07:12:07;10.45;;;8.07;;
81912;SDS011;71377;50.698;7.164;2023-08-30T07:14:34;11.88;;;8.23;;
81912;SDS011;71377;50.698;7.164;2023-08-30T07:17:01;10.45;;;7.90;;
81912;SDS011;71377;50.698;7.164;2023-08-30T07:19:28;9.70;;;7.22;;
81912;SDS011;71377;50.698;7.164;2023-08-30T07:21:54;11.27;;;7.75;;
81912;SDS011;71377;50.698;7.164;2023-08-30T07:24:21;10.27;;;7.13;;
81912;SDS011;71377;50.698;7.164;2023-08-30T07:26:48;8.02;;;7.03;;
81912;SDS011;71377;50.698;7.164;2023-08-30T07:29:15;9.63;;;7.22;;
81912;SDS011;71377;50.698;7.164;2023-08-30T07:31:42;12.63;;;7.28;;
81912;SDS011;71377;50.698;7.164;2023-08-30T07:34:09;8.18;;;6.40;;
81912;SDS011;71377;50.698;7.164;2023-08-30T07:36:36;10.82;;;6.82;;
81912;SDS011;71377;50.698;7.164;2023-08-30T07:39:13;9.60;;;6.95;;
81912;SDS011;71377;50.698;7.164;2023-08-30T07:41:39;7.90;;;6.70;;
81912;SDS011;71377;50.698;7.164;2023-08-30T07:44:06;8.43;;;6.00;;
81912;SDS011;71377;50.698;7.164;2023-08-30T07:46:32;6.90;;;5.60;;
81912;SDS011;71377;50.698;7.164;2023-08-30T07:48:58;11.05;;;5.90;;
81912;SDS011;71377;50.698;7.164;2023-08-30T07:51:26;9.75;;;5.53;;
81912;SDS011;71377;50.698;7.164;2023-08-30T07:53:52;9.50;;;5.22;;
81912;SDS011;71377;50.698;7.164;2023-08-30T07:56:20;6.35;;;4.60;;
81912;SDS011;71377;50.698;7.164;2023-08-30T07:58:47;8.30;;;5.05;;
81912;SDS011;71377;50.698;7.164;2023-08-30T08:01:13;8.57;;;4.35;;
81912;SDS011;71377;50.698;7.164;2023-08-30T08:03:40;9.02;;;4.35;;
81912;SDS011;71377;50.698;7.164;2023-08-30T08:06:21;6.68;;;4.20;;
81912;SDS011;71377;50.698;7.164;2023-08-30T08:08:48;6.13;;;4.18;;
81912;SDS011;71377;50.698;7.164;2023-08-30T08:11:15;6.30;;;3.75;;
81912;SDS011;71377;50.698;7.164;2023-08-30T08:13:41;4.10;;;3.70;;
81912;SDS011;71377;50.698;7.164;2023-08-30T08:16:08;7.93;;;3.92;;
81912;SDS011;71377;50.698;7.164;2023-08-30T08:18:35;6.32;;;4.15;;
81912;SDS011;71377;50.698;7.164;2023-08-30T08:21:02;5.75;;;4.22;;
81912;SDS011;71377;50.698;7.164;2023-08-30T08:23:30;5.53;;;3.70;;
81912;SDS011;71377;50.698;7.164;2023-08-30T08:25:57;5.25;;;3.67;;
81912;SDS011;71377;50.698;7.164;2023-08-30T08:28:24;4.78;;;3.15;;
81912;SDS011;71377;50.698;7.164;2023-08-30T08:30:51;5.55;;;3.15;;
81912;SDS011;71377;50.698;7.164;2023-08-30T08:33:18;4.85;;;2.88;;
81912;SDS011;71377;50.698;7.164;2023-08-30T08:35:44;5.93;;;2.58;;
81912;SDS011;71377;50.698;7.164;2023-08-30T08:38:11;3.20;;;2.72;;
81912;SDS011;71377;50.698;7.164;2023-08-30T08:40:38;6.45;;;2.50;;
81912;SDS011;71377;50.698;7.164;2023-08-30T08:43:11;4.60;;;2.72;;
81912;SDS011;71377;50.698;7.164;2023-08-30T08:45:38;5.82;;;2.80;;
81912;SDS011;71377;50.698;7.164;2023-08-30T08:48:06;3.95;;;2.38;;
81912;SDS011;71377;50.698;7.164;2023-08-30T08:50:34;5.88;;;2.42;;
81912;SDS011;71377;50.698;7.164;2023-08-30T08:53:01;6.95;;;2.33;;
81912;SDS011;71377;50.698;7.164;2023-08-30T08:55:29;3.22;;;1.88;;
81912;SDS011;71377;50.698;7.164;2023-08-30T08:57:57;4.78;;;2.22;;
81912;SDS011;71377;50.698;7.164;2023-08-30T09:00:27;4.78;;;2.15;;
81912;SDS011;71377;50.698;7.164;2023-08-30T09:02:56;2.63;;;2.15;;
81912;SDS011;71377;50.698;7.164;2023-08-30T09:05:26;3.13;;;1.98;;
81912;SDS011;71377;50.698;7.164;2023-08-30T09:07:54;4.22;;;2.20;;
81912;SDS011;71377;50.698;7.164;2023-08-30T09:10:21;4.47;;;3.00;;
81912;SDS011;71377;50.698;7.164;2023-08-30T09:12:48;2.38;;;2.10;;
81912;SDS011;71377;50.698;7.164;2023-08-30T09:15:15;3.45;;;2.05;;
81912;SDS011;71377;50.698;7.164;2023-08-30T09:17:44;5.70;;;2.17;;
81912;SDS011;71377;50.698;7.164;2023-08-30T09:20:14;3.88;;;2.30;;
81912;SDS011;71377;50.698;7.164;2023-08-30T09:22:41;4.65;;;2.53;;
81912;SDS011;71377;50.698;7.164;2023-08-30T09:25:09;4.53;;;2.03;;
81912;SDS011;71377;50.698;7.164;2023-08-30T09:27:37;2.90;;;2.00;;
81912;SDS011;71377;50.698;7.164;2023-08-30T09:30:08;5.63;;;2.72;;
81912;SDS011;71377;50.698;7.164;2023-08-30T09:32:40;2.60;;;2.08;;
81912;SDS011;71377;50.698;7.164;2023-08-30T09:35:08;4.78;;;2.28;;
81912;SDS011;71377;50.698;7.164;2023-08-30T09:37:36;3.65;;;2.45;;
81912;SDS011;71377;50.698;7.164;2023-08-30T09:40:02;3.08;;;2.40;;
81912;SDS011;71377;50.698;7.164;2023-08-30T09:42:31;3.88;;;2.30;;
81912;SDS011;71377;50.698;7.164;2023-08-30T09:44:57;4.93;;;2.30;;
81912;SDS011;71377;50.698;7.164;2023-08-30T09:47:24;4.95;;;2.40;;
81912;SDS011;71377;50.698;7.164;2023-08-30T09:49:55;4.90;;;2.65;;
81912;SDS011;71377;50.698;7.164;2023-08-30T09:52:23;5.35;;;2.10;;
81912;SDS011;71377;50.698;7.164;2023-08-30T09:54:51;2.22;;;1.98;;
81912;SDS011;71377;50.698;7.164;2023-08-30T09:57:18;3.65;;;1.83;;
81912;SDS011;71377;50.698;7.164;2023-08-30T09:59:45;5.13;;;2.00;;
81912;SDS011;71377;50.698;7.164;2023-08-30T10:02:12;4.75;;;2.05;;
81912;SDS011;71377;50.698;7.164;2023-08-30T10:04:39;4.07;;;1.90;;
81912;SDS011;71377;50.698;7.164;2023-08-30T10:07:07;2.75;;;1.92;;
81912;SDS011;71377;50.698;7.164;2023-08-30T10:09:35;2.75;;;1.60;;
81912;SDS011;71377;50.698;7.164;2023-08-30T10:12:17;3.72;;;2.17;;
81912;SDS011;71377;50.698;7.164;2023-08-30T10:14:46;4.47;;;1.80;;
81912;SDS011;71377;50.698;7.164;2023-08-30T10:17:12;4.38;;;2.35;;
81912;SDS011;71377;50.698;7.164;2023-08-30T10:19:45;5.72;;;1.85;;
81912;SDS011;71377;50.698;7.164;2023-08-30T10:22:12;3.38;;;1.85;;
81912;SDS011;71377;50.698;7.164;2023-08-30T10:24:42;4.80;;;2.28;;
81912;SDS011;71377;50.698;7.164;2023-08-30T10:27:33;4.88;;;2.17;;
81912;SDS011;71377;50.698;7.164;2023-08-30T10:30:01;6.15;;;2.42;;
81912;SDS011;71377;50.698;7.164;2023-08-30T10:32:30;4.03;;;1.98;;
81912;SDS011;71377;50.698;7.164;2023-08-30T10:35:00;3.15;;;2.10;;
81912;SDS011;71377;50.698;7.164;2023-08-30T10:37:29;3.83;;;2.05;;
81912;SDS011;71377;50.698;7.164;2023-08-30T10:39:59;3.28;;;2.10;;
81912;SDS011;71377;50.698;7.164;2023-08-30T10:42:27;3.35;;;2.28;;
81912;SDS011;71377;50.698;7.164;2023-08-30T10:44:57;3.25;;;2.05;;
81912;SDS011;71377;50.698;7.164;2023-08-30T10:47:39;3.15;;;1.90;;
81912;SDS011;71377;50.698;7.164;2023-08-30T10:50:07;2.78;;;2.15;;
81912;SDS011;71377;50.698;7.164;2023-08-30T10:52:34;2.75;;;1.90;;
81912;SDS011;71377;50.698;7.164;2023-08-30T10:55:08;4.07;;;2.20;;
81912;SDS011;71377;50.698;7.164;2023-08-30T10:57:36;4.50;;;1.90;;
81912;SDS011;71377;50.698;7.164;2023-08-30T11:00:10;2.70;;;1.80;;
81912;SDS011;71377;50.698;7.164;2023-08-30T11:02:37;3.30;;;1.85;;
81912;SDS011;71377;50.698;7.164;2023-08-30T11:05:08;2.83;;;2.10;;
81912;SDS011;71377;50.698;7.164;2023-08-30T11:07:35;3.10;;;2.00;;
81912;SDS011;71377;50.698;7.164;2023-08-30T11:10:03;3.55;;;1.92;;
81912;SDS011;71377;50.698;7.164;2023-08-30T11:12:31;3.63;;;2.25;;
81912;SDS011;71377;50.698;7.164;2023-08-30T11:14:57;2.45;;;2.20;;
81912;SDS011;71377;50.698;7.164;2023-08-30T11:17:25;3.20;;;2.17;;
81912;SDS011;71377;50.698;7.164;2023-08-30T11:20:08;4.22;;;2.25;;
81912;SDS011;71377;50.698;7.164;2023-08-30T11:22:44;3.50;;;2.03;;
81912;SDS011;71377;50.698;7.164;2023-08-30T11:27:39;4.35;;;2.03;;
81912;SDS011;71377;50.698;7.164;2023-08-30T11:30:06;6.60;;;2.00;;
81912;SDS011;71377;50.698;7.164;2023-08-30T11:32:35;4.40;;;1.58;;
81912;SDS011;71377;50.698;7.164;2023-08-30T11:35:02;2.53;;;1.50;;
81912;SDS011;71377;50.698;7.164;2023-08-30T11:37:29;3.13;;;1.90;;
81912;SDS011;71377;50.698;7.164;2023-08-30T11:39:56;3.72;;;2.13;;
81912;SDS011;71377;50.698;7.164;2023-08-30T11:42:24;3.00;;;1.95;;
81912;SDS011;71377;50.698;7.164;2023-08-30T11:44:52;3.72;;;1.75;;
81912;SDS011;71377;50.698;7.164;2023-08-30T11:47:19;2.95;;;1.85;;
81912;SDS011;71377;50.698;7.164;2023-08-30T11:49:52;3.60;;;1.70;;
81912;SDS011;71377;50.698;7.164;2023-08-30T11:52:19;1.60;;;1.40;;
81912;SDS011;71377;50.698;7.164;2023-08-30T11:54:50;2.33;;;1.65;;
81912;SDS011;71377;50.698;7.164;2023-08-30T11:57:17;3.00;;;1.80;;
81912;SDS011;71377;50.698;7.164;2023-08-30T11:59:44;3.63;;;1.85;;
81912;SDS011;71377;50.698;7.164;2023-08-30T12:02:13;3.25;;;2.03;;
81912;SDS011;71377;50.698;7.164;2023-08-30T12:04:41;2.85;;;1.83;;
81912;SDS011;71377;50.698;7.164;2023-08-30T12:07:08;2.85;;;1.80;;
81912;SDS011;71377;50.698;7.164;2023-08-30T12:09:37;4.97;;;2.05;;
81912;SDS011;71377;50.698;7.164;2023-08-30T12:12:08;2.65;;;2.28;;
81912;SDS011;71377;50.698;7.164;2023-08-30T12:14:36;3.72;;;2.28;;
81912;SDS011;71377;50.698;7.164;2023-08-30T12:17:04;4.53;;;2.50;;
81912;SDS011;71377;50.698;7.164;2023-08-30T12:19:31;3.25;;;2.50;;
81912;SDS011;71377;50.698;7.164;2023-08-30T12:22:04;4.50;;;3.05;;
81912;SDS011;71377;50.698;7.164;2023-08-30T12:24:43;5.13;;;3.58;;
81912;SDS011;71377;50.698;7.164;2023-08-30T12:27:14;3.03;;;2.20;;
81912;SDS011;71377;50.698;7.164;2023-08-30T12:29:41;6.82;;;2.80;;
81912;SDS011;71377;50.698;7.164;2023-08-30T12:32:09;5.18;;;2.78;;
81912;SDS011;71377;50.698;7.164;2023-08-30T12:34:37;3.58;;;2.40;;
81912;SDS011;71377;50.698;7.164;2023-08-30T12:37:05;5.53;;;3.28;;
81912;SDS011;71377;50.698;7.164;2023-08-30T12:39:32;3.95;;;2.55;;
81912;SDS011;71377;50.698;7.164;2023-08-30T12:41:59;4.97;;;2.58;;
81912;SDS011;71377;50.698;7.164;2023-08-30T12:44:26;4.22;;;2.78;;
81912;SDS011;71377;50.698;7.164;2023-08-30T12:46:53;5.88;;;2.90;;
81912;SDS011;71377;50.698;7.164;2023-08-30T12:49:19;5.53;;;2.83;;
81912;SDS011;71377;50.698;7.164;2023-08-30T12:51:46;4.88;;;2.97;;
81912;SDS011;71377;50.698;7.164;2023-08-30T12:54:12;2.88;;;2.50;;
81912;SDS011;71377;50.698;7.164;2023-08-30T12:56:38;4.07;;;2.70;;
81912;SDS011;71377;50.698;7.164;2023-08-30T12:59:05;4.10;;;2.60;;
81912;SDS011;71377;50.698;7.164;2023-08-30T13:01:32;4.30;;;2.67;;
81912;SDS011;71377;50.698;7.164;2023-08-30T13:03:58;7.22;;;2.70;;
81912;SDS011;71377;50.698;7.164;2023-08-30T13:06:25;4.85;;;2.60;;
81912;SDS011;71377;50.698;7.164;2023-08-30T13:08:51;2.58;;;2.22;;
81912;SDS011;71377;50.698;7.164;2023-08-30T13:11:17;4.95;;;2.92;;
81912;SDS011;71377;50.698;7.164;2023-08-30T13:13:44;3.10;;;2.22;;
81912;SDS011;71377;50.698;7.164;2023-08-30T13:16:10;3.58;;;2.40;;
81912;SDS011;71377;50.698;7.164;2023-08-30T13:18:37;4.68;;;2.95;;
81912;SDS011;71377;50.698;7.164;2023-08-30T13:21:03;3.80;;;2.50;;
81912;SDS011;71377;50.698;7.164;2023-08-30T13:23:30;2.75;;;2.40;;
81912;SDS011;71377;50.698;7.164;2023-08-30T13:25:57;4.15;;;2.55;;
81912;SDS011;71377;50.698;7.164;2023-08-30T13:28:23;12.32;;;3.03;;
81912;SDS011;71377;50.698;7.164;2023-08-30T13:30:49;3.83;;;2.45;;
81912;SDS011;71377;50.698;7.164;2023-08-30T13:33:17;3.05;;;2.40;;
81912;SDS011;71377;50.698;7.164;2023-08-30T13:35:48;3.50;;;2.75;;
81912;SDS011;71377;50.698;7.164;2023-08-30T13:38:16;3.55;;;2.67;;
81912;SDS011;71377;50.698;7.164;2023-08-30T13:40:42;2.88;;;2.30;;
81912;SDS011;71377;50.698;7.164;2023-08-30T13:43:09;4.85;;;2.53;;
81912;SDS011;71377;50.698;7.164;2023-08-30T13:45:36;4.05;;;2.72;;
81912;SDS011;71377;50.698;7.164;2023-08-30T13:48:02;3.72;;;2.50;;
81912;SDS011;71377;50.698;7.164;2023-08-30T13:50:29;2.97;;;2.42;;
81912;SDS011;71377;50.698;7.164;2023-08-30T13:52:58;5.68;;;2.67;;
81912;SDS011;71377;50.698;7.164;2023-08-30T13:55:24;3.78;;;2.28;;
81912;SDS011;71377;50.698;7.164;2023-08-30T13:57:52;5.00;;;2.90;;
81912;SDS011;71377;50.698;7.164;2023-08-30T14:00:19;3.50;;;2.33;;
81912;SDS011;71377;50.698;7.164;2023-08-30T14:02:46;2.95;;;2.30;;
81912;SDS011;71377;50.698;7.164;2023-08-30T14:05:12;3.17;;;2.33;;
81912;SDS011;71377;50.698;7.164;2023-08-30T14:07:39;5.80;;;2.85;;
81912;SDS011;71377;50.698;7.164;2023-08-30T14:10:06;4.75;;;2.72;;
81912;SDS011;71377;50.698;7.164;2023-08-30T14:12:32;6.25;;;2.35;;
81912;SDS011;71377;50.698;7.164;2023-08-30T14:15:00;3.15;;;2.15;;
81912;SDS011;71377;50.698;7.164;2023-08-30T14:17:26;4.13;;;2.30;;
81912;SDS011;71377;50.698;7.164;2023-08-30T14:19:54;5.30;;;2.00;;
81912;SDS011;71377;50.698;7.164;2023-08-30T14:22:20;2.75;;;1.90;;
81912;SDS011;71377;50.698;7.164;2023-08-30T14:24:47;2.63;;;2.00;;
81912;SDS011;71377;50.698;7.164;2023-08-30T14:27:34;2.30;;;1.70;;
81912;SDS011;71377;50.698;7.164;2023-08-30T14:30:00;7.53;;;1.73;;
81912;SDS011;71377;50.698;7.164;2023-08-30T14:32:27;4.05;;;1.50;;
81912;SDS011;71377;50.698;7.164;2023-08-30T14:34:54;1.95;;;1.75;;
81912;SDS011;71377;50.698;7.164;2023-08-30T14:37:20;3.42;;;1.70;;
81912;SDS011;71377;50.698;7.164;2023-08-30T14:39:47;1.85;;;1.70;;
81912;SDS011;71377;50.698;7.164;2023-08-30T14:42:13;2.55;;;1.90;;
81912;SDS011;71377;50.698;7.164;2023-08-30T14:44:40;6.53;;;2.00;;
81912;SDS011;71377;50.698;7.164;2023-08-30T14:47:06;1.88;;;0.95;;
81912;SDS011;71377;50.698;7.164;2023-08-30T14:49:33;3.08;;;0.90;;
81912;SDS011;71377;50.698;7.164;2023-08-30T14:51:59;1.67;;;1.10;;
81912;SDS011;71377;50.698;7.164;2023-08-30T14:54:26;1.67;;;1.20;;
81912;SDS011;71377;50.698;7.164;2023-08-30T14:56:53;2.75;;;1.70;;